Seaways Skopelos — V7SU9 — position and weather

sailwx.info

Track history (hours):
 
Tides and Currents Weather Stations Pressure Air Temp Water Temp Dewpoint Dewpoint Depression Visibility Wind Speed Wind Dir Waves Ship Positions

Seaways Skopelos

Last reported at 2018-Feb-21 09:29 UTC. Time now 2018-Feb-21 09:46 UTC.
Position N 29°45' W 095°12'.

Length 183 m; draft 8.6 m.

Type: Tanker. MMSI: 538003726.

Date/timePositionNaut miles runAvg speedWind from/ knotsBaromVisibWave heightAir tempDewpointWater temp
2018-Feb-21 09:29N 29°45' W 095°12'3 5.9
2018-Feb-21 08:58N 29°44' W 095°08'3 6.6
2018-Feb-21 08:30N 29°46' W 095°05'4 7.8
2018-Feb-21 08:00N 29°44' W 095°01'4 8.8
2018-Feb-21 07:30N 29°40' W 094°59'611.3
2018-Feb-21 07:00N 29°35' W 094°56'611.6
2018-Feb-21 06:30N 29°30' W 094°52'611.6
2018-Feb-21 06:00N 29°25' W 094°49'23 2.9
2018-Feb-20 22:14N 29°08' W 094°31'0 0.0
2018-Feb-20 21:56N 29°08' W 094°31'0 0.0
2018-Feb-20 12:50N 29°08' W 094°31'0 0.0
2018-Feb-20 12:29N 29°08' W 094°31'0 0.0
2018-Feb-20 07:02N 29°08' W 094°31'0 0.3
2018-Feb-20 06:56N 29°08' W 094°31'0 0.0
2018-Feb-20 06:17N 29°08' W 094°31'0 0.0
2018-Feb-19 19:35N 29°08' W 094°31'0 0.0
2018-Feb-19 19:23N 29°08' W 094°31'0 0.0
2018-Feb-19 17:41N 29°08' W 094°31'0 0.0
2018-Feb-19 17:20N 29°08' W 094°31'0 0.0
2018-Feb-19 16:29N 29°08' W 094°31'0 0.0
2018-Feb-19 15:56N 29°08' W 094°31'0 0.0
2018-Feb-19 15:23N 29°08' W 094°31'0 0.0
2018-Feb-19 14:50N 29°08' W 094°31'0 0.0
2018-Feb-19 14:20N 29°08' W 094°31'0 0.0
2018-Feb-19 13:59N 29°08' W 094°31'0 0.0
2018-Feb-19 13:29N 29°08' W 094°31'0 0.0
2018-Feb-19 12:47N 29°08' W 094°31'0 0.0
2018-Feb-19 12:26N 29°08' W 094°31'0 0.0
2018-Feb-19 11:02N 29°08' W 094°31'0 0.0
2018-Feb-19 10:56N 29°08' W 094°31'0 0.0
2018-Feb-19 10:26N 29°08' W 094°31'0 0.0
2018-Feb-19 09:56N 29°08' W 094°31'0 0.0
2018-Feb-19 09:23N 29°08' W 094°31'0 0.0
2018-Feb-19 08:56N 29°08' W 094°31'0 0.0
2018-Feb-19 08:23N 29°08' W 094°31'0 0.0
2018-Feb-19 07:59N 29°08' W 094°31'0 0.0
2018-Feb-19 07:29N 29°08' W 094°31'0 0.0
2018-Feb-19 06:59N 29°08' W 094°31'0 0.0
2018-Feb-19 06:23N 29°08' W 094°31'0 0.0
2018-Feb-19 05:59N 29°08' W 094°31'0 0.0
2018-Feb-19 05:23N 29°08' W 094°31'0 0.0
2018-Feb-19 04:59N 29°08' W 094°31'0 0.0
2018-Feb-19 04:20N 29°08' W 094°31'0 0.0
2018-Feb-19 03:56N 29°08' W 094°31'1 0.2
2018-Feb-18 21:55N 29°07' W 094°32'7 7.6
2018-Feb-18 20:57N 29°01' W 094°29'3211.8
2018-Feb-18 18:16N 28°29' W 094°23'311.8
2018-Feb-18 17:59N 28°26' W 094°23'3 4.5
2018-Feb-18 17:20N 28°23' W 094°24'0 0.7
2018-Feb-18 16:54N 28°23' W 094°24'3 4.7
2018-Feb-18 16:13N 28°20' W 094°24'711.4
2018-Feb-18 15:35N 28°12' W 094°25'6211.3
2018-Feb-18 10:08N 27°11' W 094°25'214.0
2018-Feb-18 10:00N 27°09' W 094°25'714.2
2018-Feb-18 09:30N 27°02' W 094°26'714.0
2018-Feb-18 08:59N 26°55' W 094°27'3914.2
2018-Feb-18 06:13N 26°16' W 094°33'613.7
2018-Feb-18 05:47N 26°10' W 094°34'413.4
2018-Feb-18 05:28N 26°06' W 094°34'3212.8
2018-Feb-18 02:57N 25°35' W 094°44'  
Track history (hours):
 
Tides and Currents Weather Stations Pressure Air Temp Water Temp Dewpoint Dewpoint Depression Visibility Wind Speed Wind Dir Waves Ship Positions

Seaways Skopelos

Last reported at 2018-Feb-21 09:29 UTC. Time now 2018-Feb-21 09:46 UTC.
Position N 29°45' W 095°12'.

Length 183 m; draft 8.6 m.

Type: Tanker. MMSI: 538003726.

Date/timePositionNaut miles runAvg speedWind from/ knotsBaromVisibWave heightAir tempDewpointWater temp
2018-Feb-21 09:29N 29°45' W 095°12'3 5.9
2018-Feb-21 08:58N 29°44' W 095°08'3 6.6
2018-Feb-21 08:30N 29°46' W 095°05'4 7.8
2018-Feb-21 08:00N 29°44' W 095°01'4 8.8
2018-Feb-21 07:30N 29°40' W 094°59'611.3
2018-Feb-21 07:00N 29°35' W 094°56'611.6
2018-Feb-21 06:30N 29°30' W 094°52'611.6
2018-Feb-21 06:00N 29°25' W 094°49'23 2.9
2018-Feb-20 22:14N 29°08' W 094°31'0 0.0
2018-Feb-20 21:56N 29°08' W 094°31'0 0.0
2018-Feb-20 12:50N 29°08' W 094°31'0 0.0
2018-Feb-20 12:29N 29°08' W 094°31'0 0.0
2018-Feb-20 07:02N 29°08' W 094°31'0 0.3
2018-Feb-20 06:56N 29°08' W 094°31'0 0.0
2018-Feb-20 06:17N 29°08' W 094°31'0 0.0
2018-Feb-19 19:35N 29°08' W 094°31'0 0.0
2018-Feb-19 19:23N 29°08' W 094°31'0 0.0
2018-Feb-19 17:41N 29°08' W 094°31'0 0.0
2018-Feb-19 17:20N 29°08' W 094°31'0 0.0
2018-Feb-19 16:29N 29°08' W 094°31'0 0.0
2018-Feb-19 15:56N 29°08' W 094°31'0 0.0
2018-Feb-19 15:23N 29°08' W 094°31'0 0.0
2018-Feb-19 14:50N 29°08' W 094°31'0 0.0
2018-Feb-19 14:20N 29°08' W 094°31'0 0.0
2018-Feb-19 13:59N 29°08' W 094°31'0 0.0
2018-Feb-19 13:29N 29°08' W 094°31'0 0.0
2018-Feb-19 12:47N 29°08' W 094°31'0 0.0
2018-Feb-19 12:26N 29°08' W 094°31'0 0.0
2018-Feb-19 11:02N 29°08' W 094°31'0 0.0
2018-Feb-19 10:56N 29°08' W 094°31'0 0.0
2018-Feb-19 10:26N 29°08' W 094°31'0 0.0
2018-Feb-19 09:56N 29°08' W 094°31'0 0.0
2018-Feb-19 09:23N 29°08' W 094°31'0 0.0
2018-Feb-19 08:56N 29°08' W 094°31'0 0.0
2018-Feb-19 08:23N 29°08' W 094°31'0 0.0
2018-Feb-19 07:59N 29°08' W 094°31'0 0.0
2018-Feb-19 07:29N 29°08' W 094°31'0 0.0
2018-Feb-19 06:59N 29°08' W 094°31'0 0.0
2018-Feb-19 06:23N 29°08' W 094°31'0 0.0
2018-Feb-19 05:59N 29°08' W 094°31'0 0.0
2018-Feb-19 05:23N 29°08' W 094°31'0 0.0
2018-Feb-19 04:59N 29°08' W 094°31'0 0.0
2018-Feb-19 04:20N 29°08' W 094°31'0 0.0
2018-Feb-19 03:56N 29°08' W 094°31'1 0.2
2018-Feb-18 21:55N 29°07' W 094°32'7 7.6
2018-Feb-18 20:57N 29°01' W 094°29'3211.8
2018-Feb-18 18:16N 28°29' W 094°23'311.8
2018-Feb-18 17:59N 28°26' W 094°23'3 4.5
2018-Feb-18 17:20N 28°23' W 094°24'0 0.7
2018-Feb-18 16:54N 28°23' W 094°24'3 4.7
2018-Feb-18 16:13N 28°20' W 094°24'711.4
2018-Feb-18 15:35N 28°12' W 094°25'6211.3
2018-Feb-18 10:08N 27°11' W 094°25'214.0
2018-Feb-18 10:00N 27°09' W 094°25'714.2
2018-Feb-18 09:30N 27°02' W 094°26'714.0
2018-Feb-18 08:59N 26°55' W 094°27'3914.2
2018-Feb-18 06:13N 26°16' W 094°33'613.7
2018-Feb-18 05:47N 26°10' W 094°34'413.4
2018-Feb-18 05:28N 26°06' W 094°34'3212.8
2018-Feb-18 02:57N 25°35' W 094°44'  

Dump ship's entire track history